sensor_id;sensor_type;location;lat;lon;timestamp;P1;durP1;ratioP1;P2;durP2;ratioP2
3995;SDS011;2012;49.794;9.722;2023-08-30T00:01:12;2.83;;;1.73;;
3995;SDS011;2012;49.794;9.722;2023-08-30T00:03:39;2.97;;;1.80;;
3995;SDS011;2012;49.794;9.722;2023-08-30T00:06:06;2.00;;;1.90;;
3995;SDS011;2012;49.794;9.722;2023-08-30T00:08:33;4.93;;;1.80;;
3995;SDS011;2012;49.794;9.722;2023-08-30T00:11:00;2.63;;;1.90;;
3995;SDS011;2012;49.794;9.722;2023-08-30T00:13:29;3.93;;;1.63;;
3995;SDS011;2012;49.794;9.722;2023-08-30T00:15:57;2.67;;;2.20;;
3995;SDS011;2012;49.794;9.722;2023-08-30T00:18:25;4.33;;;1.70;;
3995;SDS011;2012;49.794;9.722;2023-08-30T00:20:52;3.37;;;1.77;;
3995;SDS011;2012;49.794;9.722;2023-08-30T00:23:19;2.70;;;2.13;;
3995;SDS011;2012;49.794;9.722;2023-08-30T00:25:47;3.90;;;2.00;;
3995;SDS011;2012;49.794;9.722;2023-08-30T00:28:14;4.73;;;1.93;;
3995;SDS011;2012;49.794;9.722;2023-08-30T00:30:41;6.30;;;2.20;;
3995;SDS011;2012;49.794;9.722;2023-08-30T00:33:08;7.17;;;1.90;;
3995;SDS011;2012;49.794;9.722;2023-08-30T00:35:35;4.40;;;1.83;;
3995;SDS011;2012;49.794;9.722;2023-08-30T00:38:02;4.13;;;2.27;;
3995;SDS011;2012;49.794;9.722;2023-08-30T00:40:37;6.03;;;2.17;;
3995;SDS011;2012;49.794;9.722;2023-08-30T00:43:05;3.00;;;2.70;;
3995;SDS011;2012;49.794;9.722;2023-08-30T00:45:33;5.10;;;2.40;;
3995;SDS011;2012;49.794;9.722;2023-08-30T00:48:01;2.50;;;2.30;;
3995;SDS011;2012;49.794;9.722;2023-08-30T00:50:27;3.37;;;2.47;;
3995;SDS011;2012;49.794;9.722;2023-08-30T00:52:55;9.00;;;2.77;;
3995;SDS011;2012;49.794;9.722;2023-08-30T00:55:21;6.23;;;3.23;;
3995;SDS011;2012;49.794;9.722;2023-08-30T00:57:49;2.60;;;2.40;;
3995;SDS011;2012;49.794;9.722;2023-08-30T01:00:15;3.57;;;2.37;;
3995;SDS011;2012;49.794;9.722;2023-08-30T01:02:43;3.60;;;2.17;;
3995;SDS011;2012;49.794;9.722;2023-08-30T01:05:11;5.07;;;3.10;;
3995;SDS011;2012;49.794;9.722;2023-08-30T01:07:38;4.60;;;3.03;;
3995;SDS011;2012;49.794;9.722;2023-08-30T01:10:06;6.13;;;3.03;;
3995;SDS011;2012;49.794;9.722;2023-08-30T01:12:43;5.40;;;3.10;;
3995;SDS011;2012;49.794;9.722;2023-08-30T01:15:15;3.37;;;3.00;;
3995;SDS011;2012;49.794;9.722;2023-08-30T01:17:47;4.50;;;2.60;;
3995;SDS011;2012;49.794;9.722;2023-08-30T01:20:15;2.70;;;2.50;;
3995;SDS011;2012;49.794;9.722;2023-08-30T01:22:47;3.50;;;2.73;;
3995;SDS011;2012;49.794;9.722;2023-08-30T01:28:19;3.10;;;2.80;;
3995;SDS011;2012;49.794;9.722;2023-08-30T01:30:51;2.77;;;2.57;;
3995;SDS011;2012;49.794;9.722;2023-08-30T01:33:21;2.80;;;2.40;;
3995;SDS011;2012;49.794;9.722;2023-08-30T01:35:50;2.83;;;2.33;;
3995;SDS011;2012;49.794;9.722;2023-08-30T01:38:19;2.57;;;2.40;;
3995;SDS011;2012;49.794;9.722;2023-08-30T01:40:46;2.90;;;2.50;;
3995;SDS011;2012;49.794;9.722;2023-08-30T01:43:14;14.33;;;2.50;;
3995;SDS011;2012;49.794;9.722;2023-08-30T01:45:43;2.67;;;2.47;;
3995;SDS011;2012;49.794;9.722;2023-08-30T01:48:11;4.50;;;3.17;;
3995;SDS011;2012;49.794;9.722;2023-08-30T01:50:41;3.63;;;3.20;;
3995;SDS011;2012;49.794;9.722;2023-08-30T01:53:10;3.90;;;3.27;;
3995;SDS011;2012;49.794;9.722;2023-08-30T01:55:39;4.33;;;3.50;;
3995;SDS011;2012;49.794;9.722;2023-08-30T01:58:06;4.37;;;3.97;;
3995;SDS011;2012;49.794;9.722;2023-08-30T02:00:35;4.43;;;3.83;;
3995;SDS011;2012;49.794;9.722;2023-08-30T02:03:12;4.57;;;4.13;;
3995;SDS011;2012;49.794;9.722;2023-08-30T02:05:48;10.00;;;5.90;;
3995;SDS011;2012;49.794;9.722;2023-08-30T02:08:38;8.60;;;4.90;;
3995;SDS011;2012;49.794;9.722;2023-08-30T02:11:11;12.83;;;5.40;;
3995;SDS011;2012;49.794;9.722;2023-08-30T02:13:43;7.87;;;5.50;;
3995;SDS011;2012;49.794;9.722;2023-08-30T02:16:13;16.23;;;6.50;;
3995;SDS011;2012;49.794;9.722;2023-08-30T02:18:41;5.80;;;5.20;;
3995;SDS011;2012;49.794;9.722;2023-08-30T02:21:08;7.17;;;4.90;;
3995;SDS011;2012;49.794;9.722;2023-08-30T02:23:36;6.37;;;4.73;;
3995;SDS011;2012;49.794;9.722;2023-08-30T02:26:02;5.30;;;4.90;;
3995;SDS011;2012;49.794;9.722;2023-08-30T02:28:29;6.03;;;4.13;;
3995;SDS011;2012;49.794;9.722;2023-08-30T02:30:56;11.50;;;5.70;;
3995;SDS011;2012;49.794;9.722;2023-08-30T02:33:23;5.07;;;4.67;;
3995;SDS011;2012;49.794;9.722;2023-08-30T02:35:50;5.73;;;5.23;;
3995;SDS011;2012;49.794;9.722;2023-08-30T02:38:17;6.30;;;5.70;;
3995;SDS011;2012;49.794;9.722;2023-08-30T02:40:44;6.87;;;5.80;;
3995;SDS011;2012;49.794;9.722;2023-08-30T02:43:11;13.60;;;5.27;;
3995;SDS011;2012;49.794;9.722;2023-08-30T02:45:38;5.53;;;5.03;;
3995;SDS011;2012;49.794;9.722;2023-08-30T02:48:05;5.93;;;5.43;;
3995;SDS011;2012;49.794;9.722;2023-08-30T02:50:32;6.40;;;4.97;;
3995;SDS011;2012;49.794;9.722;2023-08-30T02:53:00;5.30;;;4.80;;
3995;SDS011;2012;49.794;9.722;2023-08-30T02:55:26;5.27;;;4.77;;
3995;SDS011;2012;49.794;9.722;2023-08-30T02:57:53;5.33;;;4.93;;
3995;SDS011;2012;49.794;9.722;2023-08-30T03:00:20;6.10;;;5.50;;
3995;SDS011;2012;49.794;9.722;2023-08-30T03:02:48;6.27;;;5.77;;
3995;SDS011;2012;49.794;9.722;2023-08-30T03:05:17;6.23;;;5.17;;
3995;SDS011;2012;49.794;9.722;2023-08-30T03:07:44;6.17;;;5.63;;
3995;SDS011;2012;49.794;9.722;2023-08-30T03:10:11;5.70;;;5.20;;
3995;SDS011;2012;49.794;9.722;2023-08-30T03:12:39;5.60;;;5.10;;
3995;SDS011;2012;49.794;9.722;2023-08-30T03:15:06;5.80;;;5.00;;
3995;SDS011;2012;49.794;9.722;2023-08-30T03:17:34;7.10;;;5.67;;
3995;SDS011;2012;49.794;9.722;2023-08-30T03:20:02;6.00;;;5.50;;
3995;SDS011;2012;49.794;9.722;2023-08-30T03:22:33;5.03;;;4.63;;
3995;SDS011;2012;49.794;9.722;2023-08-30T03:25:00;4.17;;;3.90;;
3995;SDS011;2012;49.794;9.722;2023-08-30T03:27:29;6.40;;;5.17;;
3995;SDS011;2012;49.794;9.722;2023-08-30T03:29:57;5.67;;;5.27;;
3995;SDS011;2012;49.794;9.722;2023-08-30T03:32:23;6.03;;;5.27;;
3995;SDS011;2012;49.794;9.722;2023-08-30T03:34:51;5.00;;;4.60;;
3995;SDS011;2012;49.794;9.722;2023-08-30T03:37:18;5.23;;;4.70;;
3995;SDS011;2012;49.794;9.722;2023-08-30T03:39:45;4.77;;;4.47;;
3995;SDS011;2012;49.794;9.722;2023-08-30T03:42:11;5.67;;;5.17;;
3995;SDS011;2012;49.794;9.722;2023-08-30T03:44:39;5.37;;;4.80;;
3995;SDS011;2012;49.794;9.722;2023-08-30T03:47:06;5.90;;;5.40;;
3995;SDS011;2012;49.794;9.722;2023-08-30T03:49:33;5.33;;;4.93;;
3995;SDS011;2012;49.794;9.722;2023-08-30T03:52:01;10.00;;;6.87;;
3995;SDS011;2012;49.794;9.722;2023-08-30T03:54:28;5.70;;;5.20;;
3995;SDS011;2012;49.794;9.722;2023-08-30T03:56:55;5.30;;;4.90;;
3995;SDS011;2012;49.794;9.722;2023-08-30T03:59:22;5.60;;;5.20;;
3995;SDS011;2012;49.794;9.722;2023-08-30T04:01:53;4.93;;;4.53;;
3995;SDS011;2012;49.794;9.722;2023-08-30T04:04:20;5.17;;;4.70;;
3995;SDS011;2012;49.794;9.722;2023-08-30T04:06:47;4.93;;;4.53;;
3995;SDS011;2012;49.794;9.722;2023-08-30T04:09:15;4.80;;;4.40;;
3995;SDS011;2012;49.794;9.722;2023-08-30T04:11:43;4.93;;;4.53;;
3995;SDS011;2012;49.794;9.722;2023-08-30T04:14:10;5.07;;;4.77;;
3995;SDS011;2012;49.794;9.722;2023-08-30T04:16:37;5.77;;;5.37;;
3995;SDS011;2012;49.794;9.722;2023-08-30T04:19:06;4.50;;;4.10;;
3995;SDS011;2012;49.794;9.722;2023-08-30T04:21:33;5.23;;;4.73;;
3995;SDS011;2012;49.794;9.722;2023-08-30T04:24:00;7.10;;;4.40;;
3995;SDS011;2012;49.794;9.722;2023-08-30T04:26:27;5.53;;;5.03;;
3995;SDS011;2012;49.794;9.722;2023-08-30T04:28:55;9.30;;;4.90;;
3995;SDS011;2012;49.794;9.722;2023-08-30T04:31:22;5.83;;;4.70;;
3995;SDS011;2012;49.794;9.722;2023-08-30T04:33:49;5.23;;;4.40;;
3995;SDS011;2012;49.794;9.722;2023-08-30T04:36:19;4.90;;;4.50;;
3995;SDS011;2012;49.794;9.722;2023-08-30T04:38:47;5.27;;;4.23;;
3995;SDS011;2012;49.794;9.722;2023-08-30T04:41:27;4.40;;;4.10;;
3995;SDS011;2012;49.794;9.722;2023-08-30T04:43:54;4.83;;;4.43;;
3995;SDS011;2012;49.794;9.722;2023-08-30T04:46:21;5.43;;;4.93;;
3995;SDS011;2012;49.794;9.722;2023-08-30T04:48:49;5.07;;;4.53;;
3995;SDS011;2012;49.794;9.722;2023-08-30T04:51:15;9.13;;;5.13;;
3995;SDS011;2012;49.794;9.722;2023-08-30T04:53:42;5.87;;;5.30;;
3995;SDS011;2012;49.794;9.722;2023-08-30T04:56:11;5.83;;;5.13;;
3995;SDS011;2012;49.794;9.722;2023-08-30T04:58:39;5.47;;;4.90;;
3995;SDS011;2012;49.794;9.722;2023-08-30T05:01:08;7.03;;;6.20;;
3995;SDS011;2012;49.794;9.722;2023-08-30T05:03:37;6.23;;;5.40;;
3995;SDS011;2012;49.794;9.722;2023-08-30T05:06:07;5.97;;;5.47;;
3995;SDS011;2012;49.794;9.722;2023-08-30T05:08:34;5.67;;;5.27;;
3995;SDS011;2012;49.794;9.722;2023-08-30T05:11:01;4.77;;;4.40;;
3995;SDS011;2012;49.794;9.722;2023-08-30T05:13:32;5.30;;;4.70;;
3995;SDS011;2012;49.794;9.722;2023-08-30T05:15:59;5.77;;;5.27;;
3995;SDS011;2012;49.794;9.722;2023-08-30T05:18:27;5.63;;;5.00;;
3995;SDS011;2012;49.794;9.722;2023-08-30T05:20:54;5.33;;;4.93;;
3995;SDS011;2012;49.794;9.722;2023-08-30T05:23:21;4.80;;;4.50;;
3995;SDS011;2012;49.794;9.722;2023-08-30T05:25:48;4.50;;;4.20;;
3995;SDS011;2012;49.794;9.722;2023-08-30T05:28:16;4.57;;;4.27;;
3995;SDS011;2012;49.794;9.722;2023-08-30T05:30:43;4.33;;;4.03;;
3995;SDS011;2012;49.794;9.722;2023-08-30T05:33:26;6.37;;;4.13;;
3995;SDS011;2012;49.794;9.722;2023-08-30T05:36:04;4.80;;;4.40;;
3995;SDS011;2012;49.794;9.722;2023-08-30T05:38:50;5.20;;;4.80;;
3995;SDS011;2012;49.794;9.722;2023-08-30T05:41:32;4.60;;;4.27;;
3995;SDS011;2012;49.794;9.722;2023-08-30T05:43:59;9.10;;;5.20;;
3995;SDS011;2012;49.794;9.722;2023-08-30T05:46:26;5.37;;;4.90;;
3995;SDS011;2012;49.794;9.722;2023-08-30T05:48:54;4.93;;;4.57;;
3995;SDS011;2012;49.794;9.722;2023-08-30T05:51:22;5.00;;;4.60;;
3995;SDS011;2012;49.794;9.722;2023-08-30T05:53:49;5.67;;;5.17;;
3995;SDS011;2012;49.794;9.722;2023-08-30T05:56:16;5.83;;;5.33;;
3995;SDS011;2012;49.794;9.722;2023-08-30T05:58:43;5.73;;;5.33;;
3995;SDS011;2012;49.794;9.722;2023-08-30T06:01:10;6.10;;;5.50;;
3995;SDS011;2012;49.794;9.722;2023-08-30T06:03:37;4.90;;;4.60;;
3995;SDS011;2012;49.794;9.722;2023-08-30T06:06:04;4.70;;;4.30;;
3995;SDS011;2012;49.794;9.722;2023-08-30T06:08:32;5.10;;;4.67;;
3995;SDS011;2012;49.794;9.722;2023-08-30T06:10:59;5.37;;;4.87;;
3995;SDS011;2012;49.794;9.722;2023-08-30T06:13:26;5.20;;;4.80;;
3995;SDS011;2012;49.794;9.722;2023-08-30T06:15:53;6.67;;;5.40;;
3995;SDS011;2012;49.794;9.722;2023-08-30T06:18:20;5.53;;;5.13;;
3995;SDS011;2012;49.794;9.722;2023-08-30T06:20:47;4.77;;;4.47;;
3995;SDS011;2012;49.794;9.722;2023-08-30T06:23:14;5.17;;;4.67;;
3995;SDS011;2012;49.794;9.722;2023-08-30T06:25:45;5.20;;;4.70;;
3995;SDS011;2012;49.794;9.722;2023-08-30T06:28:19;5.57;;;5.13;;
3995;SDS011;2012;49.794;9.722;2023-08-30T06:30:46;8.77;;;5.20;;
3995;SDS011;2012;49.794;9.722;2023-08-30T06:33:13;5.23;;;4.70;;
3995;SDS011;2012;49.794;9.722;2023-08-30T06:35:40;5.23;;;4.27;;
3995;SDS011;2012;49.794;9.722;2023-08-30T06:38:08;5.23;;;4.83;;
3995;SDS011;2012;49.794;9.722;2023-08-30T06:40:36;4.83;;;4.43;;
3995;SDS011;2012;49.794;9.722;2023-08-30T06:43:03;4.90;;;4.10;;
3995;SDS011;2012;49.794;9.722;2023-08-30T06:45:30;5.27;;;4.67;;
3995;SDS011;2012;49.794;9.722;2023-08-30T06:47:58;5.80;;;5.00;;
3995;SDS011;2012;49.794;9.722;2023-08-30T06:50:24;5.80;;;4.73;;
3995;SDS011;2012;49.794;9.722;2023-08-30T06:52:51;8.70;;;4.93;;
3995;SDS011;2012;49.794;9.722;2023-08-30T06:55:18;5.90;;;5.30;;
3995;SDS011;2012;49.794;9.722;2023-08-30T06:57:47;5.90;;;5.30;;
3995;SDS011;2012;49.794;9.722;2023-08-30T07:00:15;7.70;;;4.63;;
3995;SDS011;2012;49.794;9.722;2023-08-30T07:02:43;4.80;;;4.23;;
3995;SDS011;2012;49.794;9.722;2023-08-30T07:05:13;5.83;;;5.33;;
3995;SDS011;2012;49.794;9.722;2023-08-30T07:07:39;8.13;;;5.37;;
3995;SDS011;2012;49.794;9.722;2023-08-30T07:10:06;9.03;;;5.70;;
3995;SDS011;2012;49.794;9.722;2023-08-30T07:12:33;5.30;;;4.90;;
3995;SDS011;2012;49.794;9.722;2023-08-30T07:15:01;7.17;;;6.43;;
3995;SDS011;2012;49.794;9.722;2023-08-30T07:17:29;6.73;;;6.13;;
3995;SDS011;2012;49.794;9.722;2023-08-30T07:20:16;9.00;;;6.37;;
3995;SDS011;2012;49.794;9.722;2023-08-30T07:22:43;7.03;;;6.33;;
3995;SDS011;2012;49.794;9.722;2023-08-30T07:25:10;9.73;;;7.27;;
3995;SDS011;2012;49.794;9.722;2023-08-30T07:27:38;6.97;;;6.37;;
3995;SDS011;2012;49.794;9.722;2023-08-30T07:30:05;10.57;;;9.20;;
3995;SDS011;2012;49.794;9.722;2023-08-30T07:32:33;9.10;;;8.17;;
3995;SDS011;2012;49.794;9.722;2023-08-30T07:35:02;9.07;;;8.17;;
3995;SDS011;2012;49.794;9.722;2023-08-30T07:37:30;9.00;;;6.83;;
3995;SDS011;2012;49.794;9.722;2023-08-30T07:39:57;7.13;;;6.53;;
3995;SDS011;2012;49.794;9.722;2023-08-30T07:42:24;8.07;;;7.10;;
3995;SDS011;2012;49.794;9.722;2023-08-30T07:44:51;8.40;;;6.77;;
3995;SDS011;2012;49.794;9.722;2023-08-30T07:47:18;7.50;;;6.73;;
3995;SDS011;2012;49.794;9.722;2023-08-30T07:49:45;7.87;;;7.10;;
3995;SDS011;2012;49.794;9.722;2023-08-30T07:52:12;8.13;;;7.27;;
3995;SDS011;2012;49.794;9.722;2023-08-30T07:54:40;6.20;;;5.70;;
3995;SDS011;2012;49.794;9.722;2023-08-30T07:57:07;6.97;;;5.90;;
3995;SDS011;2012;49.794;9.722;2023-08-30T07:59:37;7.63;;;6.10;;
3995;SDS011;2012;49.794;9.722;2023-08-30T08:02:05;10.97;;;6.90;;
3995;SDS011;2012;49.794;9.722;2023-08-30T08:04:34;7.70;;;6.90;;
3995;SDS011;2012;49.794;9.722;2023-08-30T08:07:02;7.30;;;6.60;;
3995;SDS011;2012;49.794;9.722;2023-08-30T08:09:30;9.27;;;7.33;;
3995;SDS011;2012;49.794;9.722;2023-08-30T08:11:58;7.03;;;6.33;;
3995;SDS011;2012;49.794;9.722;2023-08-30T08:14:25;8.23;;;7.10;;
3995;SDS011;2012;49.794;9.722;2023-08-30T08:16:52;8.40;;;7.60;;
3995;SDS011;2012;49.794;9.722;2023-08-30T08:19:19;14.23;;;6.80;;
3995;SDS011;2012;49.794;9.722;2023-08-30T08:21:51;10.23;;;8.73;;
3995;SDS011;2012;49.794;9.722;2023-08-30T08:24:20;7.80;;;6.80;;
3995;SDS011;2012;49.794;9.722;2023-08-30T08:26:47;10.70;;;8.60;;
3995;SDS011;2012;49.794;9.722;2023-08-30T08:29:14;12.80;;;11.43;;
3995;SDS011;2012;49.794;9.722;2023-08-30T08:31:41;11.60;;;10.40;;
3995;SDS011;2012;49.794;9.722;2023-08-30T08:34:10;18.27;;;12.10;;
3995;SDS011;2012;49.794;9.722;2023-08-30T08:36:38;13.53;;;10.60;;
3995;SDS011;2012;49.794;9.722;2023-08-30T08:39:06;16.60;;;13.90;;
3995;SDS011;2012;49.794;9.722;2023-08-30T08:41:40;17.90;;;16.00;;
3995;SDS011;2012;49.794;9.722;2023-08-30T08:44:09;19.40;;;15.00;;
3995;SDS011;2012;49.794;9.722;2023-08-30T08:46:38;22.70;;;16.20;;
3995;SDS011;2012;49.794;9.722;2023-08-30T08:49:09;22.50;;;14.20;;
3995;SDS011;2012;49.794;9.722;2023-08-30T08:51:40;12.27;;;9.43;;
3995;SDS011;2012;49.794;9.722;2023-08-30T08:54:09;13.20;;;10.20;;
3995;SDS011;2012;49.794;9.722;2023-08-30T08:56:37;14.80;;;12.50;;
3995;SDS011;2012;49.794;9.722;2023-08-30T08:59:05;12.27;;;10.97;;
3995;SDS011;2012;49.794;9.722;2023-08-30T09:01:35;14.57;;;13.17;;
3995;SDS011;2012;49.794;9.722;2023-08-30T09:04:04;14.30;;;12.80;;
3995;SDS011;2012;49.794;9.722;2023-08-30T09:06:35;19.50;;;12.47;;
3995;SDS011;2012;49.794;9.722;2023-08-30T09:09:03;15.30;;;11.70;;
3995;SDS011;2012;49.794;9.722;2023-08-30T09:11:30;10.93;;;8.60;;
3995;SDS011;2012;49.794;9.722;2023-08-30T09:14:15;14.10;;;12.57;;
3995;SDS011;2012;49.794;9.722;2023-08-30T09:16:43;13.23;;;10.30;;
3995;SDS011;2012;49.794;9.722;2023-08-30T09:19:21;10.90;;;8.87;;
3995;SDS011;2012;49.794;9.722;2023-08-30T09:21:54;13.03;;;9.37;;
3995;SDS011;2012;49.794;9.722;2023-08-30T09:24:24;15.47;;;10.50;;
3995;SDS011;2012;49.794;9.722;2023-08-30T09:26:52;16.23;;;11.13;;
3995;SDS011;2012;49.794;9.722;2023-08-30T09:29:21;11.13;;;10.00;;
3995;SDS011;2012;49.794;9.722;2023-08-30T09:31:52;13.00;;;11.50;;
3995;SDS011;2012;49.794;9.722;2023-08-30T09:34:23;13.80;;;10.90;;
3995;SDS011;2012;49.794;9.722;2023-08-30T09:36:53;11.37;;;10.23;;
3995;SDS011;2012;49.794;9.722;2023-08-30T09:39:21;19.87;;;11.47;;
3995;SDS011;2012;49.794;9.722;2023-08-30T09:41:48;16.23;;;9.63;;
3995;SDS011;2012;49.794;9.722;2023-08-30T09:44:17;13.40;;;11.17;;
3995;SDS011;2012;49.794;9.722;2023-08-30T09:46:50;15.70;;;12.00;;
3995;SDS011;2012;49.794;9.722;2023-08-30T09:49:20;13.93;;;11.60;;
3995;SDS011;2012;49.794;9.722;2023-08-30T09:51:50;9.30;;;8.33;;
3995;SDS011;2012;49.794;9.722;2023-08-30T09:54:24;12.10;;;10.40;;
3995;SDS011;2012;49.794;9.722;2023-08-30T09:57:05;14.30;;;11.40;;
3995;SDS011;2012;49.794;9.722;2023-08-30T09:59:33;12.23;;;10.10;;
3995;SDS011;2012;49.794;9.722;2023-08-30T10:02:00;13.00;;;10.13;;
3995;SDS011;2012;49.794;9.722;2023-08-30T10:04:27;8.77;;;7.87;;
3995;SDS011;2012;49.794;9.722;2023-08-30T10:06:55;12.37;;;9.50;;
3995;SDS011;2012;49.794;9.722;2023-08-30T10:09:26;15.00;;;10.70;;
3995;SDS011;2012;49.794;9.722;2023-08-30T10:11:57;10.83;;;8.40;;
3995;SDS011;2012;49.794;9.722;2023-08-30T10:14:24;9.13;;;8.17;;
3995;SDS011;2012;49.794;9.722;2023-08-30T10:16:51;11.13;;;8.23;;
3995;SDS011;2012;49.794;9.722;2023-08-30T10:19:28;7.80;;;6.90;;
3995;SDS011;2012;49.794;9.722;2023-08-30T10:22:06;9.33;;;8.07;;
3995;SDS011;2012;49.794;9.722;2023-08-30T10:24:42;9.20;;;7.50;;
3995;SDS011;2012;49.794;9.722;2023-08-30T10:27:38;7.30;;;6.67;;
3995;SDS011;2012;49.794;9.722;2023-08-30T10:30:10;12.73;;;7.70;;
3995;SDS011;2012;49.794;9.722;2023-08-30T10:32:42;9.57;;;6.70;;
3995;SDS011;2012;49.794;9.722;2023-08-30T10:35:14;7.73;;;7.07;;
3995;SDS011;2012;49.794;9.722;2023-08-30T10:37:56;9.10;;;7.20;;
3995;SDS011;2012;49.794;9.722;2023-08-30T10:40:26;8.33;;;7.47;;
3995;SDS011;2012;49.794;9.722;2023-08-30T10:42:59;8.30;;;7.50;;
3995;SDS011;2012;49.794;9.722;2023-08-30T10:45:30;9.87;;;7.33;;
3995;SDS011;2012;49.794;9.722;2023-08-30T10:47:57;10.37;;;7.77;;
3995;SDS011;2012;49.794;9.722;2023-08-30T10:50:29;7.57;;;6.80;;
3995;SDS011;2012;49.794;9.722;2023-08-30T10:52:57;7.93;;;7.10;;
3995;SDS011;2012;49.794;9.722;2023-08-30T10:55:25;8.13;;;7.30;;
3995;SDS011;2012;49.794;9.722;2023-08-30T10:58:01;7.60;;;6.80;;
3995;SDS011;2012;49.794;9.722;2023-08-30T11:00:31;7.70;;;6.53;;
3995;SDS011;2012;49.794;9.722;2023-08-30T11:02:58;9.00;;;6.53;;
3995;SDS011;2012;49.794;9.722;2023-08-30T11:05:25;7.93;;;6.20;;
3995;SDS011;2012;49.794;9.722;2023-08-30T11:07:54;7.97;;;7.27;;
3995;SDS011;2012;49.794;9.722;2023-08-30T11:10:21;7.87;;;5.90;;
3995;SDS011;2012;49.794;9.722;2023-08-30T11:12:49;6.10;;;5.60;;
3995;SDS011;2012;49.794;9.722;2023-08-30T11:15:16;12.10;;;6.00;;
3995;SDS011;2012;49.794;9.722;2023-08-30T11:17:44;15.60;;;5.87;;
3995;SDS011;2012;49.794;9.722;2023-08-30T11:20:15;5.70;;;5.20;;
3995;SDS011;2012;49.794;9.722;2023-08-30T11:22:45;5.70;;;5.20;;
3995;SDS011;2012;49.794;9.722;2023-08-30T11:25:14;5.80;;;5.30;;
3995;SDS011;2012;49.794;9.722;2023-08-30T11:27:42;5.50;;;5.00;;
3995;SDS011;2012;49.794;9.722;2023-08-30T11:30:09;5.00;;;4.53;;
3995;SDS011;2012;49.794;9.722;2023-08-30T11:32:40;5.47;;;4.87;;
3995;SDS011;2012;49.794;9.722;2023-08-30T11:35:12;4.27;;;3.97;;
3995;SDS011;2012;49.794;9.722;2023-08-30T11:37:39;6.37;;;4.33;;
3995;SDS011;2012;49.794;9.722;2023-08-30T11:40:08;5.07;;;3.70;;
3995;SDS011;2012;49.794;9.722;2023-08-30T11:42:37;6.00;;;3.60;;
3995;SDS011;2012;49.794;9.722;2023-08-30T11:45:04;4.57;;;4.17;;
3995;SDS011;2012;49.794;9.722;2023-08-30T11:47:31;4.20;;;3.80;;
3995;SDS011;2012;49.794;9.722;2023-08-30T11:49:59;5.20;;;4.23;;
3995;SDS011;2012;49.794;9.722;2023-08-30T11:52:26;4.27;;;3.90;;
3995;SDS011;2012;49.794;9.722;2023-08-30T11:54:54;3.70;;;3.50;;
3995;SDS011;2012;49.794;9.722;2023-08-30T11:57:21;4.17;;;3.87;;
3995;SDS011;2012;49.794;9.722;2023-08-30T11:59:48;3.53;;;3.23;;
3995;SDS011;2012;49.794;9.722;2023-08-30T12:02:17;4.60;;;4.20;;
3995;SDS011;2012;49.794;9.722;2023-08-30T12:04:45;3.33;;;3.10;;
3995;SDS011;2012;49.794;9.722;2023-08-30T12:07:23;3.00;;;2.70;;
3995;SDS011;2012;49.794;9.722;2023-08-30T12:09:52;2.97;;;2.70;;
3995;SDS011;2012;49.794;9.722;2023-08-30T12:12:30;2.73;;;2.47;;
3995;SDS011;2012;49.794;9.722;2023-08-30T12:14:57;5.07;;;2.80;;
3995;SDS011;2012;49.794;9.722;2023-08-30T12:17:24;3.53;;;2.80;;
3995;SDS011;2012;49.794;9.722;2023-08-30T12:19:55;5.73;;;2.13;;
3995;SDS011;2012;49.794;9.722;2023-08-30T12:22:22;3.07;;;2.30;;
3995;SDS011;2012;49.794;9.722;2023-08-30T12:24:49;5.10;;;2.70;;
3995;SDS011;2012;49.794;9.722;2023-08-30T12:27:16;5.63;;;3.00;;
3995;SDS011;2012;49.794;9.722;2023-08-30T12:29:43;4.10;;;2.47;;
3995;SDS011;2012;49.794;9.722;2023-08-30T12:32:10;2.43;;;2.23;;
3995;SDS011;2012;49.794;9.722;2023-08-30T12:34:37;4.63;;;2.60;;
3995;SDS011;2012;49.794;9.722;2023-08-30T12:37:05;5.03;;;2.60;;
3995;SDS011;2012;49.794;9.722;2023-08-30T12:39:32;2.93;;;2.70;;
3995;SDS011;2012;49.794;9.722;2023-08-30T12:41:59;2.30;;;2.10;;
3995;SDS011;2012;49.794;9.722;2023-08-30T12:44:26;5.00;;;2.20;;
3995;SDS011;2012;49.794;9.722;2023-08-30T12:46:53;2.53;;;2.10;;
3995;SDS011;2012;49.794;9.722;2023-08-30T12:49:20;2.40;;;2.30;;
3995;SDS011;2012;49.794;9.722;2023-08-30T12:51:47;2.97;;;2.20;;
3995;SDS011;2012;49.794;9.722;2023-08-30T12:54:14;2.87;;;2.10;;
3995;SDS011;2012;49.794;9.722;2023-08-30T12:56:41;2.47;;;2.27;;
3995;SDS011;2012;49.794;9.722;2023-08-30T12:59:07;2.87;;;2.57;;
3995;SDS011;2012;49.794;9.722;2023-08-30T13:01:34;4.13;;;2.50;;
3995;SDS011;2012;49.794;9.722;2023-08-30T13:04:01;2.70;;;2.50;;
3995;SDS011;2012;49.794;9.722;2023-08-30T13:06:29;3.90;;;3.60;;
3995;SDS011;2012;49.794;9.722;2023-08-30T13:08:56;4.50;;;3.17;;
3995;SDS011;2012;49.794;9.722;2023-08-30T13:11:23;3.53;;;3.23;;
3995;SDS011;2012;49.794;9.722;2023-08-30T13:13:52;3.30;;;2.80;;
3995;SDS011;2012;49.794;9.722;2023-08-30T13:16:19;3.70;;;2.87;;
3995;SDS011;2012;49.794;9.722;2023-08-30T13:18:46;3.33;;;3.03;;
3995;SDS011;2012;49.794;9.722;2023-08-30T13:21:13;3.03;;;2.80;;
3995;SDS011;2012;49.794;9.722;2023-08-30T13:23:42;2.70;;;2.50;;
3995;SDS011;2012;49.794;9.722;2023-08-30T13:26:09;3.00;;;2.80;;
3995;SDS011;2012;49.794;9.722;2023-08-30T13:28:36;2.20;;;2.10;;
3995;SDS011;2012;49.794;9.722;2023-08-30T13:31:06;2.80;;;2.30;;
3995;SDS011;2012;49.794;9.722;2023-08-30T13:33:33;2.07;;;1.93;;
3995;SDS011;2012;49.794;9.722;2023-08-30T13:36:00;3.23;;;2.30;;
3995;SDS011;2012;49.794;9.722;2023-08-30T13:38:28;4.07;;;2.03;;
3995;SDS011;2012;49.794;9.722;2023-08-30T13:40:58;2.07;;;1.97;;
3995;SDS011;2012;49.794;9.722;2023-08-30T13:43:30;2.93;;;1.90;;
3995;SDS011;2012;49.794;9.722;2023-08-30T13:45:58;2.50;;;1.63;;
3995;SDS011;2012;49.794;9.722;2023-08-30T13:48:25;1.87;;;1.60;;
3995;SDS011;2012;49.794;9.722;2023-08-30T13:50:52;4.40;;;1.57;;
3995;SDS011;2012;49.794;9.722;2023-08-30T13:53:19;1.33;;;1.23;;
3995;SDS011;2012;49.794;9.722;2023-08-30T13:55:46;1.33;;;1.23;;
3995;SDS011;2012;49.794;9.722;2023-08-30T13:58:16;1.70;;;1.40;;
3995;SDS011;2012;49.794;9.722;2023-08-30T14:00:44;2.30;;;1.60;;
3995;SDS011;2012;49.794;9.722;2023-08-30T14:03:11;1.20;;;1.10;;
3995;SDS011;2012;49.794;9.722;2023-08-30T14:05:39;7.43;;;1.37;;
3995;SDS011;2012;49.794;9.722;2023-08-30T14:08:08;1.73;;;1.53;;
3995;SDS011;2012;49.794;9.722;2023-08-30T14:10:36;1.57;;;1.20;;
3995;SDS011;2012;49.794;9.722;2023-08-30T14:13:03;1.10;;;1.00;;
3995;SDS011;2012;49.794;9.722;2023-08-30T14:15:31;2.80;;;1.60;;
3995;SDS011;2012;49.794;9.722;2023-08-30T14:17:58;3.10;;;2.00;;
3995;SDS011;2012;49.794;9.722;2023-08-30T14:20:27;1.43;;;1.20;;
3995;SDS011;2012;49.794;9.722;2023-08-30T14:22:54;17.03;;;6.80;;
3995;SDS011;2012;49.794;9.722;2023-08-30T14:25:21;2.33;;;1.43;;
3995;SDS011;2012;49.794;9.722;2023-08-30T14:27:48;3.90;;;1.77;;
3995;SDS011;2012;49.794;9.722;2023-08-30T14:30:15;2.90;;;1.10;;
3995;SDS011;2012;49.794;9.722;2023-08-30T14:32:42;7.83;;;3.87;;
3995;SDS011;2012;49.794;9.722;2023-08-30T14:35:09;15.97;;;6.70;;
3995;SDS011;2012;49.794;9.722;2023-08-30T14:37:37;14.37;;;6.23;;
3995;SDS011;2012;49.794;9.722;2023-08-30T14:40:06;21.83;;;8.00;;
3995;SDS011;2012;49.794;9.722;2023-08-30T14:42:34;5.10;;;2.93;;
3995;SDS011;2012;49.794;9.722;2023-08-30T14:45:01;5.23;;;1.60;;
3995;SDS011;2012;49.794;9.722;2023-08-30T14:47:29;2.83;;;1.70;;
3995;SDS011;2012;49.794;9.722;2023-08-30T14:49:57;2.80;;;1.30;;
3995;SDS011;2012;49.794;9.722;2023-08-30T14:52:25;3.67;;;1.47;;
3995;SDS011;2012;49.794;9.722;2023-08-30T14:54:52;1.60;;;1.50;;
3995;SDS011;2012;49.794;9.722;2023-08-30T14:57:18;3.90;;;2.40;;
3995;SDS011;2012;49.794;9.722;2023-08-30T14:59:46;2.60;;;2.07;;
3995;SDS011;2012;49.794;9.722;2023-08-30T15:02:14;2.20;;;1.50;;
3995;SDS011;2012;49.794;9.722;2023-08-30T15:04:41;1.73;;;1.10;;
3995;SDS011;2012;49.794;9.722;2023-08-30T15:07:08;1.53;;;1.43;;
3995;SDS011;2012;49.794;9.722;2023-08-30T15:09:34;3.63;;;1.30;;
3995;SDS011;2012;49.794;9.722;2023-08-30T15:12:01;1.33;;;0.97;;
3995;SDS011;2012;49.794;9.722;2023-08-30T15:14:30;1.40;;;1.13;;
3995;SDS011;2012;49.794;9.722;2023-08-30T15:16:59;3.00;;;1.63;;
3995;SDS011;2012;49.794;9.722;2023-08-30T15:19:25;2.17;;;1.50;;
3995;SDS011;2012;49.794;9.722;2023-08-30T15:21:53;3.97;;;1.60;;
3995;SDS011;2012;49.794;9.722;2023-08-30T15:24:19;5.93;;;2.87;;